MLX weather

Malatya ErhaƧ Airport
Malatya, Malatya Province, Turkey

Public forecast

Using degrees Celsius for public forecast. Weather courtesy of forecast.io.

METAR (pilot weather report)

Retrieved 2019/06/17 20:20 UTC (0 seconds ago):

LTAT 172020Z 19004KT 130V230 CAVOK 19/13 Q1009 NOSIG RMK RWY03 21007KT

TAF (pilot weather forecast)

Retrieved 2019/06/17 18:03 UTC (2 hours ago):

TAF LTAT 171640Z 1718/1818 21008KT 9999 SCT040 BKN100 TEMPO 1718/1720 FEW030CB BKN035 BECMG 1720/1722 CAVOK BECMG 1804/1806 SCT040 BKN100 TEMPO 1808/1812 -TSRA FEW030CB BKN035 TEMPO 1812/1816 -TSRA FEW030CB BKN035